createdAt,value
2022-10-04T00:01:51.676Z,1.70
2022-10-04T00:04:26.446Z,2.60
2022-10-04T00:07:01.187Z,2.03
2022-10-04T00:09:35.728Z,1.83
2022-10-04T00:12:06.052Z,2.00
2022-10-04T00:14:40.519Z,1.93
2022-10-04T00:17:12.529Z,1.90
2022-10-04T00:19:45.477Z,2.70
2022-10-04T00:22:18.944Z,2.23
2022-10-04T00:25:20.762Z,1.90
2022-10-04T00:28:26.068Z,1.50
2022-10-04T00:31:14.134Z,1.83
2022-10-04T00:33:44.090Z,2.33
2022-10-04T00:36:47.338Z,2.27
2022-10-04T00:39:27.433Z,1.90
2022-10-04T00:42:04.705Z,1.47
2022-10-04T00:44:40.363Z,1.70
2022-10-04T00:47:25.274Z,1.83
2022-10-04T00:50:00.331Z,1.70
2022-10-04T00:52:31.951Z,2.50
2022-10-04T00:55:03.964Z,1.97
2022-10-04T00:57:37.321Z,1.70
2022-10-04T01:00:12.177Z,1.80
2022-10-04T01:02:54.047Z,1.80
2022-10-04T01:05:27.482Z,1.77
2022-10-04T01:08:01.042Z,1.70
2022-10-04T01:10:33.336Z,1.90
2022-10-04T01:13:08.770Z,2.63
2022-10-04T01:15:44.303Z,2.40
2022-10-04T01:18:17.551Z,2.80
2022-10-04T01:20:55.466Z,3.23
2022-10-04T01:23:42.020Z,4.27
2022-10-04T01:26:41.192Z,4.30
2022-10-04T01:29:17.862Z,5.93
2022-10-04T01:31:48.082Z,5.43
2022-10-04T01:34:19.185Z,4.80
2022-10-04T01:36:48.746Z,5.53
2022-10-04T01:39:20.540Z,5.80
2022-10-04T01:41:54.148Z,6.70
2022-10-04T01:44:32.384Z,6.73
2022-10-04T01:47:03.836Z,9.53
2022-10-04T01:49:34.785Z,6.30
2022-10-04T01:52:09.031Z,6.17
2022-10-04T01:54:43.724Z,6.17
2022-10-04T01:57:17.023Z,7.07
2022-10-04T01:59:53.246Z,6.03
2022-10-04T02:02:29.077Z,6.07
2022-10-04T02:04:59.564Z,6.50
2022-10-04T02:07:32.524Z,6.23
2022-10-04T02:10:05.071Z,6.40
2022-10-04T02:12:35.166Z,6.40
2022-10-04T02:15:08.404Z,6.77
2022-10-04T02:17:43.987Z,6.87
2022-10-04T02:20:17.313Z,8.10
2022-10-04T02:22:46.844Z,7.50
2022-10-04T02:25:20.300Z,7.97
2022-10-04T02:27:48.749Z,8.67
2022-10-04T02:30:17.174Z,7.60
2022-10-04T02:33:00.555Z,6.53
2022-10-04T02:35:31.506Z,6.23
2022-10-04T02:38:11.887Z,5.90
2022-10-04T02:40:48.274Z,6.30
2022-10-04T02:43:21.630Z,6.13
2022-10-04T02:45:54.091Z,5.27
2022-10-04T02:48:37.053Z,5.20
2022-10-04T02:51:17.522Z,8.40
2022-10-04T02:53:54.789Z,7.80
2022-10-04T02:56:26.236Z,5.33
2022-10-04T02:58:55.618Z,5.40
2022-10-04T03:01:29.142Z,6.53
2022-10-04T03:03:58.578Z,6.37
2022-10-04T03:06:33.583Z,5.77
2022-10-04T03:09:04.832Z,5.83
2022-10-04T03:11:37.398Z,5.67
2022-10-04T03:14:09.341Z,5.97
2022-10-04T03:16:40.058Z,7.80
2022-10-04T03:19:10.066Z,5.53
2022-10-04T03:21:41.118Z,6.77
2022-10-04T03:24:16.734Z,6.47
2022-10-04T03:26:49.466Z,6.40
2022-10-04T03:29:20.554Z,6.33
2022-10-04T03:31:51.995Z,5.60
2022-10-04T03:34:22.836Z,5.47
2022-10-04T03:36:54.211Z,5.53
2022-10-04T03:39:30.082Z,5.50
2022-10-04T03:42:01.150Z,5.73
2022-10-04T03:44:29.449Z,5.67
2022-10-04T03:46:57.618Z,5.07
2022-10-04T03:49:34.256Z,5.40
2022-10-04T03:52:04.266Z,5.53
2022-10-04T03:54:34.534Z,5.70
2022-10-04T03:57:04.871Z,5.47
2022-10-04T03:59:34.608Z,5.30
2022-10-04T04:02:08.874Z,5.97
2022-10-04T04:04:44.672Z,5.70
2022-10-04T04:07:19.098Z,5.60
2022-10-04T04:09:52.282Z,4.50
2022-10-04T04:12:27.321Z,5.00
2022-10-04T04:14:57.057Z,4.90
2022-10-04T04:17:37.184Z,5.27
2022-10-04T04:20:14.599Z,5.87
2022-10-04T04:22:49.628Z,4.50
2022-10-04T04:25:19.429Z,4.23
2022-10-04T04:27:50.956Z,5.90
2022-10-04T04:30:20.073Z,4.57
2022-10-04T04:32:52.861Z,4.43
2022-10-04T04:35:26.561Z,4.37
2022-10-04T04:38:13.630Z,4.47
2022-10-04T04:40:42.426Z,4.20
2022-10-04T04:43:19.456Z,5.10
2022-10-04T04:46:08.482Z,5.07
2022-10-04T04:48:38.891Z,4.60
2022-10-04T04:51:07.677Z,4.63
2022-10-04T04:53:36.432Z,3.53
2022-10-04T04:56:10.488Z,4.20
2022-10-04T04:58:46.859Z,3.50
2022-10-04T05:01:22.897Z,3.20
2022-10-04T05:04:02.482Z,3.20
2022-10-04T05:06:32.226Z,3.70
2022-10-04T05:09:00.762Z,3.33
2022-10-04T05:11:31.407Z,3.50
2022-10-04T05:14:04.501Z,3.67
2022-10-04T05:16:38.955Z,3.73
2022-10-04T05:19:10.973Z,3.47
2022-10-04T05:21:43.015Z,3.23
2022-10-04T05:24:15.167Z,4.23
2022-10-04T05:26:44.618Z,2.70
2022-10-04T05:29:21.041Z,3.00
2022-10-04T05:31:56.310Z,3.37
2022-10-04T05:34:27.360Z,3.27
2022-10-04T05:37:11.628Z,3.27
2022-10-04T05:39:44.978Z,2.80
2022-10-04T05:42:21.543Z,2.63
2022-10-04T05:44:55.327Z,3.17
2022-10-04T05:47:26.848Z,3.27
2022-10-04T05:49:58.431Z,3.27
2022-10-04T05:52:31.327Z,3.60
2022-10-04T05:55:30.364Z,3.77
2022-10-04T05:58:18.624Z,3.07
2022-10-04T06:01:10.852Z,2.77
2022-10-04T06:03:52.768Z,2.63
2022-10-04T06:06:26.356Z,2.80
2022-10-04T06:09:08.719Z,3.30
2022-10-04T06:11:49.360Z,3.33
2022-10-04T06:14:41.363Z,3.10
2022-10-04T06:17:32.593Z,3.87
2022-10-04T06:20:23.588Z,2.80
2022-10-04T06:23:00.880Z,3.30
2022-10-04T06:25:35.774Z,3.80
2022-10-04T06:28:17.863Z,3.93
2022-10-04T06:31:05.581Z,3.37
2022-10-04T06:33:55.823Z,3.30
2022-10-04T06:36:44.781Z,3.30
2022-10-04T06:39:33.008Z,3.53
2022-10-04T06:42:23.785Z,3.73
2022-10-04T06:45:11.433Z,3.40
2022-10-04T06:47:55.814Z,3.70
2022-10-04T06:50:40.370Z,3.33
2022-10-04T06:53:23.083Z,3.10
2022-10-04T06:56:17.131Z,3.47
2022-10-04T06:59:05.781Z,3.73
2022-10-04T07:01:35.672Z,3.50
2022-10-04T07:04:19.352Z,3.67
2022-10-04T07:07:18.441Z,3.63
2022-10-04T07:09:48.243Z,3.70
2022-10-04T07:12:19.048Z,3.57
2022-10-04T07:14:50.920Z,3.83
2022-10-04T07:17:29.508Z,4.10
2022-10-04T07:20:00.617Z,3.40
2022-10-04T07:22:36.191Z,3.23
2022-10-04T07:25:16.081Z,3.50
2022-10-04T07:28:15.188Z,3.13
2022-10-04T07:30:48.801Z,3.30
2022-10-04T07:33:22.602Z,3.77
2022-10-04T07:36:00.151Z,4.10
2022-10-04T07:38:33.129Z,3.43
2022-10-04T07:41:12.059Z,2.80
2022-10-04T07:43:49.634Z,3.70
2022-10-04T07:46:25.783Z,3.13
2022-10-04T07:48:54.610Z,3.47
2022-10-04T07:51:31.182Z,3.07
2022-10-04T07:54:06.226Z,3.20
2022-10-04T07:56:40.869Z,3.10
2022-10-04T07:59:35.270Z,2.90
2022-10-04T08:02:16.453Z,3.30
2022-10-04T08:05:01.824Z,3.30
2022-10-04T08:07:47.052Z,3.17
2022-10-04T08:10:25.960Z,3.07
2022-10-04T08:13:06.175Z,2.60
2022-10-04T08:15:40.264Z,2.83
2022-10-04T08:18:24.720Z,3.47
2022-10-04T08:20:59.261Z,3.10
2022-10-04T08:23:57.283Z,2.83
2022-10-04T08:26:51.742Z,4.03
2022-10-04T08:29:43.865Z,3.20
2022-10-04T08:32:38.623Z,3.57
2022-10-04T08:35:31.423Z,3.00
2022-10-04T08:38:34.541Z,3.57
2022-10-04T08:41:48.415Z,3.73
2022-10-04T08:44:58.415Z,3.33
2022-10-04T08:48:01.560Z,3.10
2022-10-04T08:50:53.172Z,3.40
2022-10-04T08:53:54.621Z,2.70
2022-10-04T08:56:40.511Z,3.17
2022-10-04T08:59:43.820Z,2.80
2022-10-04T09:02:42.888Z,2.80
2022-10-04T09:05:43.538Z,2.60
2022-10-04T09:08:39.408Z,2.20
2022-10-04T09:11:31.603Z,2.03
2022-10-04T09:14:19.181Z,2.10
2022-10-04T09:16:48.837Z,2.40
2022-10-04T09:19:23.012Z,2.23
2022-10-04T09:22:19.299Z,2.30
2022-10-04T09:25:20.798Z,3.30
2022-10-04T09:28:11.112Z,2.97
2022-10-04T09:30:54.507Z,3.50
2022-10-04T09:33:46.766Z,3.50
2022-10-04T09:36:43.282Z,3.33
2022-10-04T09:39:44.090Z,3.40
2022-10-04T09:42:47.746Z,2.40
2022-10-04T09:45:45.412Z,2.83
2022-10-04T09:48:27.371Z,2.57
2022-10-04T09:51:26.294Z,2.80
2022-10-04T09:54:05.870Z,2.20
2022-10-04T09:56:56.867Z,2.50
2022-10-04T09:59:46.876Z,2.20
2022-10-04T10:02:47.099Z,1.80
2022-10-04T10:05:28.790Z,2.00
2022-10-04T10:08:10.021Z,2.40
2022-10-04T10:11:06.197Z,2.10
2022-10-04T10:14:00.549Z,2.23
2022-10-04T10:17:01.228Z,1.90
2022-10-04T10:19:51.232Z,1.60
2022-10-04T10:22:37.671Z,2.07
2022-10-04T10:25:17.450Z,1.93
2022-10-04T10:27:54.210Z,2.53
2022-10-04T10:30:27.481Z,2.10
2022-10-04T10:33:42.867Z,2.60
2022-10-04T10:36:49.775Z,2.10
2022-10-04T10:39:53.814Z,2.50
2022-10-04T10:43:04.278Z,2.93
2022-10-04T10:45:46.511Z,2.77
2022-10-04T10:48:24.366Z,2.53
2022-10-04T10:51:04.599Z,2.60
2022-10-04T10:54:13.456Z,2.23
2022-10-04T10:56:51.963Z,2.20
2022-10-04T10:59:54.186Z,2.40
2022-10-04T11:03:12.306Z,2.00
2022-10-04T11:06:16.297Z,1.90
2022-10-04T11:09:15.549Z,2.00
2022-10-04T11:12:12.476Z,2.40
2022-10-04T11:15:21.068Z,2.60
2022-10-04T11:18:29.392Z,2.20
2022-10-04T11:21:30.820Z,2.40
2022-10-04T11:24:35.300Z,2.43
2022-10-04T11:27:30.732Z,2.57
2022-10-04T11:30:25.430Z,2.60
2022-10-04T11:33:32.633Z,2.97
2022-10-04T11:36:31.405Z,3.47
2022-10-04T11:39:22.341Z,3.33
2022-10-04T11:41:57.411Z,3.50
2022-10-04T11:44:45.455Z,3.40
2022-10-04T11:47:27.957Z,3.67
2022-10-04T11:50:12.563Z,3.77
2022-10-04T11:53:19.287Z,3.60
2022-10-04T11:56:20.738Z,3.03
2022-10-04T11:59:11.855Z,2.73
2022-10-04T12:02:00.249Z,3.10
2022-10-04T12:04:53.683Z,2.77
2022-10-04T12:07:42.954Z,2.90
2022-10-04T12:10:25.864Z,2.80
2022-10-04T12:13:25.362Z,3.50
2022-10-04T12:16:28.986Z,2.80
2022-10-04T12:19:41.094Z,2.70
2022-10-04T12:22:30.483Z,3.43
2022-10-04T12:25:34.542Z,2.60
2022-10-04T12:28:37.945Z,2.97
2022-10-04T12:31:17.696Z,3.07
2022-10-04T12:33:54.118Z,2.30
2022-10-04T12:36:37.232Z,2.47
2022-10-04T12:39:19.170Z,2.47
2022-10-04T12:41:59.275Z,2.73
2022-10-04T12:44:43.202Z,2.13
2022-10-04T12:47:46.113Z,2.00
2022-10-04T12:50:26.427Z,2.17
2022-10-04T12:53:05.445Z,2.43
2022-10-04T12:56:01.381Z,2.20
2022-10-04T12:58:41.436Z,2.57
2022-10-04T13:01:23.199Z,3.47
2022-10-04T13:04:13.464Z,3.03
2022-10-04T13:06:53.199Z,3.47
2022-10-04T13:09:37.312Z,2.97
2022-10-04T13:12:19.208Z,3.70
2022-10-04T13:15:25.892Z,3.13
2022-10-04T13:18:06.355Z,3.33
2022-10-04T13:20:47.074Z,3.33
2022-10-04T13:23:27.037Z,3.27
2022-10-04T13:26:15.951Z,3.20
2022-10-04T13:28:53.925Z,3.50
2022-10-04T13:31:33.196Z,3.10
2022-10-04T13:34:13.316Z,3.87
2022-10-04T13:37:06.471Z,4.13
2022-10-04T13:40:05.073Z,4.03
2022-10-04T13:42:53.516Z,3.77
2022-10-04T13:45:35.662Z,4.60
2022-10-04T13:48:27.975Z,4.30
2022-10-04T13:51:16.398Z,3.80
2022-10-04T13:54:14.880Z,4.37
2022-10-04T13:57:16.898Z,4.43
2022-10-04T13:59:49.452Z,4.00
2022-10-04T14:02:49.802Z,4.00
2022-10-04T14:05:55.456Z,4.00
2022-10-04T14:08:57.729Z,4.43
2022-10-04T14:12:05.833Z,3.13
2022-10-04T14:15:01.783Z,3.53
2022-10-04T14:18:14.053Z,3.40
2022-10-04T14:21:19.567Z,3.57
2022-10-04T14:24:14.312Z,3.30
2022-10-04T14:27:10.787Z,3.10
2022-10-04T14:30:15.155Z,3.53
2022-10-04T14:33:16.447Z,3.20
2022-10-04T14:35:53.428Z,2.97
2022-10-04T14:39:02.667Z,3.37
2022-10-04T14:41:57.946Z,3.10
2022-10-04T14:44:55.837Z,3.40
2022-10-04T14:47:43.230Z,3.10
2022-10-04T14:50:29.767Z,2.80
2022-10-04T14:53:14.666Z,2.80
2022-10-04T14:56:10.653Z,3.37
2022-10-04T14:58:53.108Z,2.70
2022-10-04T15:01:23.012Z,3.80
2022-10-04T15:04:13.826Z,2.87
2022-10-04T15:06:49.726Z,2.60
2022-10-04T15:09:47.107Z,3.47
2022-10-04T15:13:09.419Z,3.90
2022-10-04T15:15:40.369Z,2.67
2022-10-04T15:18:23.505Z,3.07
2022-10-04T15:20:57.712Z,2.70
2022-10-04T15:23:35.742Z,4.30
2022-10-04T15:26:14.117Z,3.50
2022-10-04T15:29:07.571Z,2.97
2022-10-04T15:31:42.796Z,2.60
2022-10-04T15:34:27.562Z,2.53
2022-10-04T15:37:11.284Z,3.00
2022-10-04T15:39:58.256Z,3.27
2022-10-04T15:42:30.709Z,3.37
2022-10-04T15:45:26.859Z,3.50
2022-10-04T15:48:12.639Z,3.10
2022-10-04T15:50:55.753Z,3.23
2022-10-04T15:53:45.680Z,3.20
2022-10-04T15:56:37.694Z,2.43
2022-10-04T15:59:47.543Z,2.90
2022-10-04T16:02:51.346Z,2.80
2022-10-04T16:05:27.934Z,2.60
2022-10-04T16:08:19.411Z,3.47
2022-10-04T16:11:04.425Z,3.20
2022-10-04T16:13:43.688Z,3.20
2022-10-04T16:16:32.495Z,2.97
2022-10-04T16:19:18.502Z,2.83
2022-10-04T16:21:54.427Z,2.40
2022-10-04T16:24:41.494Z,3.00
2022-10-04T16:27:44.567Z,3.10
2022-10-04T16:30:28.193Z,3.73
2022-10-04T16:33:21.333Z,2.73
2022-10-04T16:36:03.292Z,3.63
2022-10-04T16:38:58.174Z,3.13
2022-10-04T16:41:37.560Z,2.73
2022-10-04T16:44:13.733Z,3.50
2022-10-04T16:46:45.245Z,3.00
2022-10-04T16:49:23.854Z,3.53
2022-10-04T16:52:09.520Z,3.50
2022-10-04T16:54:58.247Z,3.30
2022-10-04T16:57:27.875Z,3.50
2022-10-04T17:00:00.919Z,4.07
2022-10-04T17:02:55.147Z,3.53
2022-10-04T17:05:57.887Z,3.83
2022-10-04T17:08:50.053Z,4.17
2022-10-04T17:11:44.845Z,3.17
2022-10-04T17:14:43.382Z,3.50
2022-10-04T17:17:23.177Z,4.03
2022-10-04T17:19:57.625Z,4.77
2022-10-04T17:22:38.825Z,4.47
2022-10-04T17:25:22.468Z,4.70
2022-10-04T17:27:56.608Z,4.50
2022-10-04T17:30:28.202Z,4.27
2022-10-04T17:33:24.343Z,4.17
2022-10-04T17:36:07.244Z,4.70
2022-10-04T17:38:46.085Z,4.63
2022-10-04T17:41:25.106Z,4.93
2022-10-04T17:44:28.967Z,4.83
2022-10-04T17:47:03.129Z,4.67
2022-10-04T17:50:02.148Z,4.77
2022-10-04T17:52:53.243Z,5.17
2022-10-04T17:55:29.021Z,5.07
2022-10-04T17:58:04.218Z,4.40
2022-10-04T18:03:38.972Z,5.00
2022-10-04T18:06:18.727Z,6.00
2022-10-04T18:08:54.082Z,5.03
2022-10-04T18:11:31.648Z,6.67
2022-10-04T18:14:05.833Z,5.00
2022-10-04T18:16:48.623Z,5.40
2022-10-04T18:19:42.524Z,4.67
2022-10-04T18:22:15.755Z,5.47
2022-10-04T18:24:45.952Z,5.80
2022-10-04T18:27:19.675Z,5.53
2022-10-04T18:30:00.634Z,5.97
2022-10-04T18:32:38.096Z,5.10
2022-10-04T18:35:26.843Z,5.90
2022-10-04T18:37:57.908Z,5.80
2022-10-04T18:40:28.805Z,5.57
2022-10-04T18:42:58.872Z,6.93
2022-10-04T18:45:29.904Z,5.87
2022-10-04T18:48:00.492Z,6.83
2022-10-04T18:50:39.750Z,5.80
2022-10-04T18:53:23.726Z,4.80
2022-10-04T18:56:00.694Z,5.27
2022-10-04T18:58:59.243Z,4.80
2022-10-04T19:02:03.104Z,4.37
2022-10-04T19:04:45.492Z,4.47
2022-10-04T19:07:18.013Z,4.07
2022-10-04T19:10:00.335Z,3.73
2022-10-04T19:12:37.752Z,3.47
2022-10-04T19:15:16.978Z,3.70
2022-10-04T19:17:56.224Z,3.60
2022-10-04T19:20:33.182Z,3.60
2022-10-04T19:23:19.813Z,3.73
2022-10-04T19:26:17.667Z,3.33
2022-10-04T19:28:41.216Z,3.20
2022-10-04T19:31:19.012Z,4.20
2022-10-04T19:33:52.203Z,4.03
2022-10-04T19:36:46.912Z,3.63
2022-10-04T19:39:33.293Z,3.73
2022-10-04T19:42:04.764Z,4.17
2022-10-04T19:44:46.099Z,3.60
2022-10-04T19:47:25.747Z,3.23
2022-10-04T19:49:59.259Z,3.03
2022-10-04T19:52:37.715Z,3.30
2022-10-04T19:55:21.374Z,4.60
2022-10-04T19:57:52.555Z,3.30
2022-10-04T20:00:22.458Z,3.63
2022-10-04T20:02:52.017Z,3.10
2022-10-04T20:05:25.358Z,3.17
2022-10-04T20:07:57.486Z,3.10
2022-10-04T20:10:35.102Z,3.70
2022-10-04T20:13:25.640Z,3.10
2022-10-04T20:15:56.287Z,3.10
2022-10-04T20:19:01.394Z,3.10
2022-10-04T20:21:33.117Z,3.07
2022-10-04T20:24:01.842Z,2.90
2022-10-04T20:26:55.988Z,2.50
2022-10-04T20:30:06.795Z,2.80
2022-10-04T20:33:00.625Z,2.57
2022-10-04T20:36:01.030Z,2.70
2022-10-04T20:38:48.479Z,3.43
2022-10-04T20:42:20.068Z,2.67
2022-10-04T20:44:56.519Z,3.17
2022-10-04T20:47:35.013Z,2.60
2022-10-04T20:50:07.043Z,3.10
2022-10-04T20:52:38.190Z,2.90
2022-10-04T20:55:19.105Z,3.13
2022-10-04T20:57:47.594Z,3.73
2022-10-04T21:00:22.832Z,3.20
2022-10-04T21:02:51.488Z,3.47
2022-10-04T21:05:25.815Z,3.13
2022-10-04T21:08:29.519Z,2.93
2022-10-04T21:11:18.320Z,3.47
2022-10-04T21:13:58.972Z,3.40
2022-10-04T21:16:43.248Z,3.57
2022-10-04T21:19:45.384Z,3.60
2022-10-04T21:22:33.140Z,3.60
2022-10-04T21:25:03.182Z,3.80
2022-10-04T21:27:33.461Z,3.93
2022-10-04T21:30:02.945Z,3.67
2022-10-04T21:32:37.266Z,3.60
2022-10-04T21:35:07.182Z,3.70
2022-10-04T21:37:36.445Z,3.77
2022-10-04T21:40:05.316Z,3.67
2022-10-04T21:42:33.777Z,3.30
2022-10-04T21:45:01.853Z,3.77
2022-10-04T21:47:30.110Z,3.60
2022-10-04T21:49:59.977Z,3.57
2022-10-04T21:52:28.027Z,3.93
2022-10-04T21:54:56.251Z,4.00
2022-10-04T21:57:24.543Z,4.13
2022-10-04T21:59:52.949Z,4.67
2022-10-04T22:02:21.092Z,3.80
2022-10-04T22:04:49.709Z,3.40
2022-10-04T22:07:19.215Z,4.30
2022-10-04T22:09:47.288Z,4.30
2022-10-04T22:12:15.948Z,4.53
2022-10-04T22:14:44.319Z,4.47
2022-10-04T22:17:12.439Z,4.63
2022-10-04T22:19:42.618Z,5.50
2022-10-04T22:22:15.846Z,3.73
2022-10-04T22:24:46.002Z,5.27
2022-10-04T22:27:15.836Z,4.73
2022-10-04T22:29:44.213Z,4.97
2022-10-04T22:32:14.661Z,5.07
2022-10-04T22:34:43.372Z,5.27
2022-10-04T22:37:13.265Z,5.23
2022-10-04T22:39:41.630Z,4.03
2022-10-04T22:42:15.720Z,5.27
2022-10-04T22:44:44.165Z,5.53
2022-10-04T22:47:14.308Z,4.37
2022-10-04T22:49:44.816Z,4.63
2022-10-04T22:52:16.403Z,5.30
2022-10-04T22:54:46.552Z,5.30
2022-10-04T22:57:18.361Z,5.70
2022-10-04T22:59:48.801Z,4.93
2022-10-04T23:02:18.869Z,5.00
2022-10-04T23:04:52.614Z,6.33
2022-10-04T23:07:21.696Z,5.27
2022-10-04T23:09:50.667Z,6.00
2022-10-04T23:12:20.630Z,5.77
2022-10-04T23:14:48.782Z,5.70
2022-10-04T23:17:24.856Z,5.87
2022-10-04T23:19:55.386Z,6.83
2022-10-04T23:22:27.953Z,7.07
2022-10-04T23:24:57.151Z,6.63
2022-10-04T23:27:27.215Z,6.57
2022-10-04T23:30:00.225Z,6.63
2022-10-04T23:32:28.548Z,6.70
2022-10-04T23:34:57.171Z,7.10
2022-10-04T23:37:28.835Z,6.30
2022-10-04T23:39:57.444Z,6.90
2022-10-04T23:42:32.171Z,7.37
2022-10-04T23:45:02.524Z,7.83
2022-10-04T23:47:34.846Z,7.00
2022-10-04T23:50:05.784Z,7.37
2022-10-04T23:52:37.185Z,8.13
2022-10-04T23:55:15.926Z,7.27
2022-10-04T23:57:45.717Z,7.17
